sensor_id;sensor_type;location;lat;lon;timestamp;pressure;altitude;pressure_sealevel;temperature;humidity
62725;BME280;49026;52.600;4.694;2023-02-11T00:01:56;103320.25;;;6.98;82.42
62725;BME280;49026;52.600;4.694;2023-02-11T00:04:21;103317.66;;;6.99;82.29
62725;BME280;49026;52.600;4.694;2023-02-11T00:06:46;103306.31;;;6.97;82.44
62725;BME280;49026;52.600;4.694;2023-02-11T00:09:12;103322.00;;;6.97;82.17
62725;BME280;49026;52.600;4.694;2023-02-11T00:11:37;103323.72;;;6.97;82.18
62725;BME280;49026;52.600;4.694;2023-02-11T00:14:05;103330.69;;;6.98;82.30
62725;BME280;49026;52.600;4.694;2023-02-11T00:16:32;103324.66;;;7.00;81.97
62725;BME280;49026;52.600;4.694;2023-02-11T00:18:58;103323.75;;;6.98;82.27
62725;BME280;49026;52.600;4.694;2023-02-11T00:21:25;103318.53;;;6.98;82.37
62725;BME280;49026;52.600;4.694;2023-02-11T00:23:53;103323.75;;;6.98;82.53
62725;BME280;49026;52.600;4.694;2023-02-11T00:26:23;103323.72;;;6.97;82.82
62725;BME280;49026;52.600;4.694;2023-02-11T00:28:50;103328.94;;;6.95;82.68
62725;BME280;49026;52.600;4.694;2023-02-11T00:31:16;103330.63;;;6.93;82.75
62725;BME280;49026;52.600;4.694;2023-02-11T00:33:42;103332.38;;;6.93;82.09
62725;BME280;49026;52.600;4.694;2023-02-11T00:36:13;103327.16;;;6.94;82.72
62725;BME280;49026;52.600;4.694;2023-02-11T00:38:39;103316.72;;;6.94;82.60
62725;BME280;49026;52.600;4.694;2023-02-11T00:41:09;103317.56;;;6.93;82.33
62725;BME280;49026;52.600;4.694;2023-02-11T00:43:34;103316.66;;;6.91;82.38
62725;BME280;49026;52.600;4.694;2023-02-11T00:45:59;103307.94;;;6.91;82.64
62725;BME280;49026;52.600;4.694;2023-02-11T00:48:25;103312.31;;;6.90;82.91
62725;BME280;49026;52.600;4.694;2023-02-11T00:50:50;103310.53;;;6.89;82.41
62725;BME280;49026;52.600;4.694;2023-02-11T00:53:15;103313.19;;;6.91;82.30
62725;BME280;49026;52.600;4.694;2023-02-11T00:55:41;103305.28;;;6.88;83.62
62725;BME280;49026;52.600;4.694;2023-02-11T00:58:06;103300.84;;;6.82;82.85
62725;BME280;49026;52.600;4.694;2023-02-11T01:00:34;103300.69;;;6.71;82.68
62725;BME280;49026;52.600;4.694;2023-02-11T01:02:59;103302.25;;;6.61;82.82
62725;BME280;49026;52.600;4.694;2023-02-11T01:05:33;103314.31;;;6.50;82.71
62725;BME280;49026;52.600;4.694;2023-02-11T01:07:59;103311.53;;;6.41;81.97
62725;BME280;49026;52.600;4.694;2023-02-11T01:10:24;103318.38;;;6.34;82.57
62725;BME280;49026;52.600;4.694;2023-02-11T01:12:53;103316.50;;;6.27;81.96
62725;BME280;49026;52.600;4.694;2023-02-11T01:15:25;103319.03;;;6.22;82.50
62725;BME280;49026;52.600;4.694;2023-02-11T01:17:53;103318.06;;;6.16;82.56
62725;BME280;49026;52.600;4.694;2023-02-11T01:20:22;103309.34;;;6.15;82.51
62725;BME280;49026;52.600;4.694;2023-02-11T01:22:47;103306.75;;;6.15;82.60
62725;BME280;49026;52.600;4.694;2023-02-11T01:25:13;103294.50;;;6.12;83.05
62725;BME280;49026;52.600;4.694;2023-02-11T01:27:38;103301.47;;;6.12;83.08
62725;BME280;49026;52.600;4.694;2023-02-11T01:30:06;103304.91;;;6.11;83.10
62725;BME280;49026;52.600;4.694;2023-02-11T01:32:34;103309.25;;;6.10;83.17
62725;BME280;49026;52.600;4.694;2023-02-11T01:34:59;103302.19;;;6.03;83.22
62725;BME280;49026;52.600;4.694;2023-02-11T01:37:25;103295.13;;;5.99;83.61
62725;BME280;49026;52.600;4.694;2023-02-11T01:39:58;103300.28;;;5.96;83.54
62725;BME280;49026;52.600;4.694;2023-02-11T01:42:24;103296.72;;;5.92;82.93
62725;BME280;49026;52.600;4.694;2023-02-11T01:44:52;103287.06;;;5.88;82.57
62725;BME280;49026;52.600;4.694;2023-02-11T01:47:18;103294.91;;;5.88;83.18
62725;BME280;49026;52.600;4.694;2023-02-11T01:49:49;103296.59;;;5.86;82.69
62725;BME280;49026;52.600;4.694;2023-02-11T01:52:22;103300.06;;;5.85;82.82
62725;BME280;49026;52.600;4.694;2023-02-11T01:54:54;103313.09;;;5.85;82.89
62725;BME280;49026;52.600;4.694;2023-02-11T01:57:42;103304.41;;;5.86;82.75
62725;BME280;49026;52.600;4.694;2023-02-11T02:00:14;103310.56;;;5.88;82.45
62725;BME280;49026;52.600;4.694;2023-02-11T02:05:33;103307.09;;;5.89;82.97
62725;BME280;49026;52.600;4.694;2023-02-11T02:08:16;103301.03;;;5.90;83.51
62725;BME280;49026;52.600;4.694;2023-02-11T02:10:46;103298.41;;;5.90;83.00
62725;BME280;49026;52.600;4.694;2023-02-11T02:13:15;103306.25;;;5.90;83.24
62725;BME280;49026;52.600;4.694;2023-02-11T02:16:02;103298.38;;;5.89;83.71
62725;BME280;49026;52.600;4.694;2023-02-11T02:18:53;103294.03;;;5.89;83.65
62725;BME280;49026;52.600;4.694;2023-02-11T02:24:30;103280.16;;;5.90;83.42
62725;BME280;49026;52.600;4.694;2023-02-11T02:27:25;103275.75;;;5.89;83.12
62725;BME280;49026;52.600;4.694;2023-02-11T02:32:47;103291.50;;;5.92;83.37
62725;BME280;49026;52.600;4.694;2023-02-11T02:40:40;103293.34;;;5.97;83.34
62725;BME280;49026;52.600;4.694;2023-02-11T02:43:08;103284.66;;;5.98;83.02
62725;BME280;49026;52.600;4.694;2023-02-11T02:45:34;103282.94;;;5.98;83.19
62725;BME280;49026;52.600;4.694;2023-02-11T02:47:59;103279.41;;;5.96;82.88
62725;BME280;49026;52.600;4.694;2023-02-11T02:50:30;103280.22;;;5.93;83.53
62725;BME280;49026;52.600;4.694;2023-02-11T02:53:10;103280.16;;;5.90;83.09
62725;BME280;49026;52.600;4.694;2023-02-11T03:01:50;103278.22;;;5.80;83.70
62725;BME280;49026;52.600;4.694;2023-02-11T03:04:25;103284.22;;;5.76;83.15
62725;BME280;49026;52.600;4.694;2023-02-11T03:10:02;103283.31;;;5.74;83.46
62725;BME280;49026;52.600;4.694;2023-02-11T03:12:33;103276.31;;;5.73;82.76
62725;BME280;49026;52.600;4.694;2023-02-11T03:15:02;103280.66;;;5.71;83.63
62725;BME280;49026;52.600;4.694;2023-02-11T03:17:30;103283.19;;;5.68;83.07
62725;BME280;49026;52.600;4.694;2023-02-11T03:20:09;103284.88;;;5.64;83.02
62725;BME280;49026;52.600;4.694;2023-02-11T03:25:41;103270.06;;;5.62;82.97
62725;BME280;49026;52.600;4.694;2023-02-11T03:30:48;103264.75;;;5.59;83.50
62725;BME280;49026;52.600;4.694;2023-02-11T03:33:28;103263.88;;;5.56;83.63
62725;BME280;49026;52.600;4.694;2023-02-11T03:36:03;103269.97;;;5.59;83.33
62725;BME280;49026;52.600;4.694;2023-02-11T03:38:32;103272.59;;;5.59;83.33
62725;BME280;49026;52.600;4.694;2023-02-11T03:41:00;103270.78;;;5.56;83.49
62725;BME280;49026;52.600;4.694;2023-02-11T03:43:39;103275.94;;;5.51;83.47
62725;BME280;49026;52.600;4.694;2023-02-11T03:46:08;103275.91;;;5.50;83.67
62725;BME280;49026;52.600;4.694;2023-02-11T03:48:40;103276.75;;;5.49;83.12
62725;BME280;49026;52.600;4.694;2023-02-11T03:51:09;103275.78;;;5.44;82.74
62725;BME280;49026;52.600;4.694;2023-02-11T03:53:37;103278.28;;;5.39;83.45
62725;BME280;49026;52.600;4.694;2023-02-11T03:56:07;103266.03;;;5.35;83.00
62725;BME280;49026;52.600;4.694;2023-02-11T03:58:33;103270.31;;;5.33;83.54
62725;BME280;49026;52.600;4.694;2023-02-11T04:00:58;103265.97;;;5.32;82.89
62725;BME280;49026;52.600;4.694;2023-02-11T04:03:26;103272.94;;;5.33;83.18
62725;BME280;49026;52.600;4.694;2023-02-11T04:05:51;103266.88;;;5.34;83.42
62725;BME280;49026;52.600;4.694;2023-02-11T04:08:16;103262.53;;;5.34;83.13
62725;BME280;49026;52.600;4.694;2023-02-11T04:10:42;103252.94;;;5.32;83.58
62725;BME280;49026;52.600;4.694;2023-02-11T04:13:07;103249.44;;;5.30;82.95
62725;BME280;49026;52.600;4.694;2023-02-11T04:15:35;103252.81;;;5.26;83.08
62725;BME280;49026;52.600;4.694;2023-02-11T04:18:00;103254.44;;;5.20;83.30
62725;BME280;49026;52.600;4.694;2023-02-11T04:20:27;103252.66;;;5.18;83.70
62725;BME280;49026;52.600;4.694;2023-02-11T04:22:55;103256.91;;;5.14;83.23
62725;BME280;49026;52.600;4.694;2023-02-11T04:25:20;103248.25;;;5.15;83.70
62725;BME280;49026;52.600;4.694;2023-02-11T04:27:45;103248.25;;;5.15;82.98
62725;BME280;49026;52.600;4.694;2023-02-11T04:30:13;103238.72;;;5.17;82.97
62725;BME280;49026;52.600;4.694;2023-02-11T04:32:38;103250.88;;;5.17;83.32
62725;BME280;49026;52.600;4.694;2023-02-11T04:35:05;103255.19;;;5.15;83.07
62725;BME280;49026;52.600;4.694;2023-02-11T04:37:30;103251.72;;;5.16;83.19
62725;BME280;49026;52.600;4.694;2023-02-11T04:39:55;103251.75;;;5.17;83.13
62725;BME280;49026;52.600;4.694;2023-02-11T04:42:21;103250.94;;;5.18;82.86
62725;BME280;49026;52.600;4.694;2023-02-11T04:44:46;103255.31;;;5.19;83.13
62725;BME280;49026;52.600;4.694;2023-02-11T04:47:11;103263.16;;;5.23;83.43
62725;BME280;49026;52.600;4.694;2023-02-11T04:49:39;103265.00;;;5.27;83.44
62725;BME280;49026;52.600;4.694;2023-02-11T04:52:07;103269.38;;;5.29;83.45
62725;BME280;49026;52.600;4.694;2023-02-11T04:54:35;103270.25;;;5.28;84.00
62725;BME280;49026;52.600;4.694;2023-02-11T04:57:00;103282.38;;;5.28;83.36
62725;BME280;49026;52.600;4.694;2023-02-11T04:59:26;103284.16;;;5.29;83.78
62725;BME280;49026;52.600;4.694;2023-02-11T05:01:51;103275.47;;;5.28;83.50
62725;BME280;49026;52.600;4.694;2023-02-11T05:04:16;103284.16;;;5.29;83.52
62725;BME280;49026;52.600;4.694;2023-02-11T05:06:44;103284.16;;;5.29;83.61
62725;BME280;49026;52.600;4.694;2023-02-11T05:09:12;103285.00;;;5.28;83.66
62725;BME280;49026;52.600;4.694;2023-02-11T05:11:38;103282.44;;;5.31;83.70
62725;BME280;49026;52.600;4.694;2023-02-11T05:14:08;103291.19;;;5.33;83.74
62725;BME280;49026;52.600;4.694;2023-02-11T05:16:34;103289.50;;;5.35;84.01
62725;BME280;49026;52.600;4.694;2023-02-11T05:18:59;103291.19;;;5.33;83.83
62725;BME280;49026;52.600;4.694;2023-02-11T05:21:25;103290.28;;;5.31;84.15
62725;BME280;49026;52.600;4.694;2023-02-11T05:23:50;103292.88;;;5.31;83.65
62725;BME280;49026;52.600;4.694;2023-02-11T05:26:17;103291.97;;;5.29;83.91
62725;BME280;49026;52.600;4.694;2023-02-11T05:28:44;103295.41;;;5.28;83.71
62725;BME280;49026;52.600;4.694;2023-02-11T05:31:10;103292.81;;;5.26;83.75
62725;BME280;49026;52.600;4.694;2023-02-11T05:33:38;103296.19;;;5.22;84.12
62725;BME280;49026;52.600;4.694;2023-02-11T05:36:06;103303.13;;;5.22;83.87
62725;BME280;49026;52.600;4.694;2023-02-11T05:38:32;103298.75;;;5.20;83.67
62725;BME280;49026;52.600;4.694;2023-02-11T05:40:58;103297.97;;;5.25;83.61
62725;BME280;49026;52.600;4.694;2023-02-11T05:43:24;103298.06;;;5.29;84.10
62725;BME280;49026;52.600;4.694;2023-02-11T05:45:49;103301.63;;;5.34;84.29
62725;BME280;49026;52.600;4.694;2023-02-11T05:48:14;103299.97;;;5.36;83.97
62725;BME280;49026;52.600;4.694;2023-02-11T05:50:40;103291.31;;;5.39;84.14
62725;BME280;49026;52.600;4.694;2023-02-11T05:53:05;103302.66;;;5.41;83.86
62725;BME280;49026;52.600;4.694;2023-02-11T05:55:31;103312.31;;;5.45;84.22
62725;BME280;49026;52.600;4.694;2023-02-11T05:57:57;103308.00;;;5.47;84.73
62725;BME280;49026;52.600;4.694;2023-02-11T06:00:22;103306.38;;;5.52;85.07
62725;BME280;49026;52.600;4.694;2023-02-11T06:02:47;103310.81;;;5.56;85.15
62725;BME280;49026;52.600;4.694;2023-02-11T06:05:13;103304.72;;;5.57;84.53
62725;BME280;49026;52.600;4.694;2023-02-11T06:07:38;103302.09;;;5.56;84.82
62725;BME280;49026;52.600;4.694;2023-02-11T06:10:04;103304.72;;;5.57;85.12
62725;BME280;49026;52.600;4.694;2023-02-11T06:12:31;103295.19;;;5.60;84.77
62725;BME280;49026;52.600;4.694;2023-02-11T06:15:00;103296.97;;;5.61;84.92
62725;BME280;49026;52.600;4.694;2023-02-11T06:17:25;103296.00;;;5.55;85.15
62725;BME280;49026;52.600;4.694;2023-02-11T06:19:50;103290.84;;;5.59;84.75
62725;BME280;49026;52.600;4.694;2023-02-11T06:22:16;103293.47;;;5.59;84.84
62725;BME280;49026;52.600;4.694;2023-02-11T06:24:41;103289.94;;;5.56;84.75
62725;BME280;49026;52.600;4.694;2023-02-11T06:27:07;103289.03;;;5.56;84.80
62725;BME280;49026;52.600;4.694;2023-02-11T06:29:35;103294.28;;;5.57;84.79
62725;BME280;49026;52.600;4.694;2023-02-11T06:32:00;103300.41;;;5.58;85.02
62725;BME280;49026;52.600;4.694;2023-02-11T06:34:26;103290.78;;;5.55;84.88
62725;BME280;49026;52.600;4.694;2023-02-11T06:36:51;103297.81;;;5.58;85.07
62725;BME280;49026;52.600;4.694;2023-02-11T06:39:16;103300.41;;;5.60;85.07
62725;BME280;49026;52.600;4.694;2023-02-11T06:41:41;103299.50;;;5.57;85.60
62725;BME280;49026;52.600;4.694;2023-02-11T06:44:07;103294.28;;;5.57;85.09
62725;BME280;49026;52.600;4.694;2023-02-11T06:46:32;103288.28;;;5.60;85.78
62725;BME280;49026;52.600;4.694;2023-02-11T06:48:57;103296.13;;;5.62;85.06
62725;BME280;49026;52.600;4.694;2023-02-11T06:51:23;103293.53;;;5.62;85.49
62725;BME280;49026;52.600;4.694;2023-02-11T06:53:50;103295.25;;;5.63;85.24
62725;BME280;49026;52.600;4.694;2023-02-11T06:56:21;103301.41;;;5.66;85.63
62725;BME280;49026;52.600;4.694;2023-02-11T06:58:46;103301.41;;;5.66;85.23
62725;BME280;49026;52.600;4.694;2023-02-11T07:01:14;103311.00;;;5.67;85.60
62725;BME280;49026;52.600;4.694;2023-02-11T07:03:43;103304.19;;;5.74;85.93
62725;BME280;49026;52.600;4.694;2023-02-11T07:06:14;103306.06;;;5.81;86.01
62725;BME280;49026;52.600;4.694;2023-02-11T07:08:40;103308.00;;;5.90;86.06
62725;BME280;49026;52.600;4.694;2023-02-11T07:11:18;103307.16;;;5.92;86.06
62725;BME280;49026;52.600;4.694;2023-02-11T07:13:47;103307.28;;;5.97;86.24
62725;BME280;49026;52.600;4.694;2023-02-11T07:16:17;103311.66;;;6.00;86.16
62725;BME280;49026;52.600;4.694;2023-02-11T07:18:44;103313.44;;;6.01;85.99
62725;BME280;49026;52.600;4.694;2023-02-11T07:21:11;103318.66;;;6.01;86.00
62725;BME280;49026;52.600;4.694;2023-02-11T07:23:37;103319.56;;;6.04;86.85
62725;BME280;49026;52.600;4.694;2023-02-11T07:26:04;103317.88;;;6.05;86.63
62725;BME280;49026;52.600;4.694;2023-02-11T07:28:33;103324.00;;;6.07;86.79
62725;BME280;49026;52.600;4.694;2023-02-11T07:31:15;103325.69;;;6.06;86.60
62725;BME280;49026;52.600;4.694;2023-02-11T07:33:41;103324.03;;;6.08;86.76
62725;BME280;49026;52.600;4.694;2023-02-11T07:36:09;103319.78;;;6.15;86.96
62725;BME280;49026;52.600;4.694;2023-02-11T07:38:35;103321.56;;;6.18;86.65
62725;BME280;49026;52.600;4.694;2023-02-11T07:41:06;103319.06;;;6.24;86.63
62725;BME280;49026;52.600;4.694;2023-02-11T07:43:32;103320.84;;;6.25;86.63
62725;BME280;49026;52.600;4.694;2023-02-11T07:45:58;103312.16;;;6.27;86.24
62725;BME280;49026;52.600;4.694;2023-02-11T07:48:23;103330.56;;;6.34;87.35
62725;BME280;49026;52.600;4.694;2023-02-11T07:50:49;103330.59;;;6.35;87.31
62725;BME280;49026;52.600;4.694;2023-02-11T07:53:14;103334.19;;;6.42;86.85
62725;BME280;49026;52.600;4.694;2023-02-11T07:55:41;103326.41;;;6.46;87.36
62725;BME280;49026;52.600;4.694;2023-02-11T07:58:09;103334.31;;;6.51;87.34
62725;BME280;49026;52.600;4.694;2023-02-11T08:00:35;103337.88;;;6.56;86.91
62725;BME280;49026;52.600;4.694;2023-02-11T08:03:00;103337.94;;;6.59;87.08
62725;BME280;49026;52.600;4.694;2023-02-11T08:05:25;103336.28;;;6.64;87.35
62725;BME280;49026;52.600;4.694;2023-02-11T08:07:52;103343.34;;;6.68;86.86
62725;BME280;49026;52.600;4.694;2023-02-11T08:10:17;103338.16;;;6.73;87.34
62725;BME280;49026;52.600;4.694;2023-02-11T08:12:45;103343.41;;;6.75;87.49
62725;BME280;49026;52.600;4.694;2023-02-11T08:15:10;103359.16;;;6.79;88.01
62725;BME280;49026;52.600;4.694;2023-02-11T08:17:38;103359.25;;;6.84;87.25
62725;BME280;49026;52.600;4.694;2023-02-11T08:20:04;103354.16;;;6.92;87.79
62725;BME280;49026;52.600;4.694;2023-02-11T08:22:33;103364.72;;;6.99;88.28
62725;BME280;49026;52.600;4.694;2023-02-11T08:24:59;103361.31;;;7.03;87.96
62725;BME280;49026;52.600;4.694;2023-02-11T08:27:25;103363.94;;;7.07;87.57
62725;BME280;49026;52.600;4.694;2023-02-11T08:29:54;103364.00;;;7.10;87.39
62725;BME280;49026;52.600;4.694;2023-02-11T08:32:29;103349.25;;;7.15;87.38
62725;BME280;49026;52.600;4.694;2023-02-11T08:34:54;103365.03;;;7.21;88.31
62725;BME280;49026;52.600;4.694;2023-02-11T08:37:19;103366.84;;;7.25;87.64
62725;BME280;49026;52.600;4.694;2023-02-11T08:39:45;103373.91;;;7.31;88.19
62725;BME280;49026;52.600;4.694;2023-02-11T08:42:12;103376.59;;;7.37;87.94
62725;BME280;49026;52.600;4.694;2023-02-11T08:44:38;103378.41;;;7.42;87.97
62725;BME280;49026;52.600;4.694;2023-02-11T08:47:03;103375.00;;;7.50;88.01
62725;BME280;49026;52.600;4.694;2023-02-11T08:49:28;103368.06;;;7.53;87.76
62725;BME280;49026;52.600;4.694;2023-02-11T08:51:58;103356.81;;;7.57;88.36
62725;BME280;49026;52.600;4.694;2023-02-11T08:54:28;103373.41;;;7.61;88.07
62725;BME280;49026;52.600;4.694;2023-02-11T08:56:54;103365.56;;;7.61;88.41
62725;BME280;49026;52.600;4.694;2023-02-11T08:59:22;103369.97;;;7.62;88.20
62725;BME280;49026;52.600;4.694;2023-02-11T09:01:49;103379.53;;;7.63;88.90
62725;BME280;49026;52.600;4.694;2023-02-11T09:04:17;103376.13;;;7.67;88.61
62725;BME280;49026;52.600;4.694;2023-02-11T09:06:44;103379.63;;;7.69;88.63
62725;BME280;49026;52.600;4.694;2023-02-11T09:09:11;103391.00;;;7.71;87.97
62725;BME280;49026;52.600;4.694;2023-02-11T09:11:37;103384.94;;;7.75;88.05
62725;BME280;49026;52.600;4.694;2023-02-11T09:14:04;103387.63;;;7.78;87.89
62725;BME280;49026;52.600;4.694;2023-02-11T09:16:34;103392.84;;;7.80;88.43
62725;BME280;49026;52.600;4.694;2023-02-11T09:19:02;103399.88;;;7.83;88.18
62725;BME280;49026;52.600;4.694;2023-02-11T09:21:28;103404.22;;;7.81;87.88
62725;BME280;49026;52.600;4.694;2023-02-11T09:23:54;103408.56;;;7.82;87.76
62725;BME280;49026;52.600;4.694;2023-02-11T09:26:27;103412.03;;;7.77;88.31
62725;BME280;49026;52.600;4.694;2023-02-11T09:28:53;103419.84;;;7.76;87.66
62725;BME280;49026;52.600;4.694;2023-02-11T09:31:22;103425.91;;;7.72;88.12
62725;BME280;49026;52.600;4.694;2023-02-11T09:33:49;103418.03;;;7.69;87.62
62725;BME280;49026;52.600;4.694;2023-02-11T09:36:17;103430.16;;;7.64;87.21
62725;BME280;49026;52.600;4.694;2023-02-11T09:38:46;103430.13;;;7.60;87.26
62725;BME280;49026;52.600;4.694;2023-02-11T09:41:34;103432.81;;;7.68;87.45
62725;BME280;49026;52.600;4.694;2023-02-11T09:44:15;103437.50;;;7.92;87.04
62725;BME280;49026;52.600;4.694;2023-02-11T09:46:41;103436.31;;;8.41;86.55
62725;BME280;49026;52.600;4.694;2023-02-11T09:49:17;103440.16;;;8.72;85.78
62725;BME280;49026;52.600;4.694;2023-02-11T09:51:48;103439.41;;;8.84;85.63
62725;BME280;49026;52.600;4.694;2023-02-11T09:54:26;103441.13;;;8.83;85.76
62725;BME280;49026;52.600;4.694;2023-02-11T09:56:52;103451.66;;;8.89;85.43
62725;BME280;49026;52.600;4.694;2023-02-11T09:59:21;103448.31;;;9.04;85.52
62725;BME280;49026;52.600;4.694;2023-02-11T10:01:50;103457.41;;;9.54;84.49
62725;BME280;49026;52.600;4.694;2023-02-11T10:10:36;103463.69;;;9.84;84.16
62725;BME280;49026;52.600;4.694;2023-02-11T10:16:05;103470.63;;;9.74;85.13
62725;BME280;49026;52.600;4.694;2023-02-11T10:23:41;103475.94;;;9.83;83.93
62725;BME280;49026;52.600;4.694;2023-02-11T10:26:16;103461.28;;;10.33;83.46
62725;BME280;49026;52.600;4.694;2023-02-11T10:28:45;103478.88;;;11.01;82.76
62725;BME280;49026;52.600;4.694;2023-02-11T10:31:23;103481.53;;;11.02;81.96
62725;BME280;49026;52.600;4.694;2023-02-11T10:34:01;103499.88;;;10.59;81.81
62725;BME280;49026;52.600;4.694;2023-02-11T10:36:33;103493.59;;;10.12;83.53
62725;BME280;49026;52.600;4.694;2023-02-11T10:39:10;103494.28;;;9.82;84.20
62725;BME280;49026;52.600;4.694;2023-02-11T10:41:39;103509.06;;;9.63;84.39
62725;BME280;49026;52.600;4.694;2023-02-11T10:44:06;103505.50;;;9.53;85.14
62725;BME280;49026;52.600;4.694;2023-02-11T10:46:34;103506.38;;;9.55;85.68
62725;BME280;49026;52.600;4.694;2023-02-11T10:49:00;103509.94;;;9.57;85.57
62725;BME280;49026;52.600;4.694;2023-02-11T10:51:29;103497.72;;;9.66;85.64
62725;BME280;49026;52.600;4.694;2023-02-11T10:56:30;103506.59;;;9.88;85.46
62725;BME280;49026;52.600;4.694;2023-02-11T10:59:04;103504.94;;;10.08;85.22
62725;BME280;49026;52.600;4.694;2023-02-11T11:01:48;103501.44;;;10.08;84.44
62725;BME280;49026;52.600;4.694;2023-02-11T11:07:09;103509.41;;;10.29;84.12
62725;BME280;49026;52.600;4.694;2023-02-11T11:15:22;103507.72;;;10.44;83.85
62725;BME280;49026;52.600;4.694;2023-02-11T11:17:50;103510.47;;;11.01;83.96
62725;BME280;49026;52.600;4.694;2023-02-11T11:20:32;103518.38;;;11.35;83.37
62725;BME280;49026;52.600;4.694;2023-02-11T11:23:16;103510.47;;;11.50;83.44
62725;BME280;49026;52.600;4.694;2023-02-11T11:25:45;103518.34;;;11.44;83.28
62725;BME280;49026;52.600;4.694;2023-02-11T11:28:24;103525.38;;;11.34;81.55
62725;BME280;49026;52.600;4.694;2023-02-11T11:30:54;103529.78;;;11.30;82.75
62725;BME280;49026;52.600;4.694;2023-02-11T11:33:24;103524.53;;;11.23;82.94
62725;BME280;49026;52.600;4.694;2023-02-11T11:35:58;103525.38;;;11.12;83.09
62725;BME280;49026;52.600;4.694;2023-02-11T11:38:29;103529.75;;;10.90;82.56
62725;BME280;49026;52.600;4.694;2023-02-11T11:44:02;103521.78;;;10.55;82.68
62725;BME280;49026;52.600;4.694;2023-02-11T11:46:34;103519.16;;;10.55;82.40
62725;BME280;49026;52.600;4.694;2023-02-11T11:49:12;103509.59;;;10.86;81.63
62725;BME280;49026;52.600;4.694;2023-02-11T11:51:50;103514.00;;;11.13;81.38
62725;BME280;49026;52.600;4.694;2023-02-11T11:54:22;103515.72;;;11.42;80.15
62725;BME280;49026;52.600;4.694;2023-02-11T11:57:11;103515.69;;;11.70;78.89
62725;BME280;49026;52.600;4.694;2023-02-11T11:59:39;103509.53;;;11.76;79.21
62725;BME280;49026;52.600;4.694;2023-02-11T12:05:13;103527.75;;;12.45;78.88
62725;BME280;49026;52.600;4.694;2023-02-11T12:07:48;103529.56;;;12.37;77.81
62725;BME280;49026;52.600;4.694;2023-02-11T12:10:42;103527.94;;;12.02;78.87
62725;BME280;49026;52.600;4.694;2023-02-11T12:13:25;103519.19;;;11.78;79.02
62725;BME280;49026;52.600;4.694;2023-02-11T12:19:18;103519.19;;;11.81;79.04
62725;BME280;49026;52.600;4.694;2023-02-11T12:22:08;103516.56;;;11.77;78.90
62725;BME280;49026;52.600;4.694;2023-02-11T12:24:51;103514.00;;;11.41;79.11
62725;BME280;49026;52.600;4.694;2023-02-11T12:41:56;103534.09;;;11.84;79.09
62725;BME280;49026;52.600;4.694;2023-02-11T12:45:06;103533.28;;;11.66;78.96
62725;BME280;49026;52.600;4.694;2023-02-11T12:50:43;103534.19;;;11.16;79.41
62725;BME280;49026;52.600;4.694;2023-02-11T12:56:05;103538.47;;;10.66;79.25
62725;BME280;49026;52.600;4.694;2023-02-11T12:58:39;103543.69;;;10.57;78.98
62725;BME280;49026;52.600;4.694;2023-02-11T13:01:15;103530.56;;;10.51;79.38
62725;BME280;49026;52.600;4.694;2023-02-11T13:03:45;103535.81;;;10.51;80.11
62725;BME280;49026;52.600;4.694;2023-02-11T13:06:17;103529.72;;;10.61;80.47
62725;BME280;49026;52.600;4.694;2023-02-11T13:08:48;103536.72;;;10.68;80.69
62725;BME280;49026;52.600;4.694;2023-02-11T13:11:39;103538.50;;;10.69;80.02
62725;BME280;49026;52.600;4.694;2023-02-11T13:14:13;103533.22;;;10.63;80.17
62725;BME280;49026;52.600;4.694;2023-02-11T13:16:44;103537.59;;;10.60;79.56
62725;BME280;49026;52.600;4.694;2023-02-11T13:26:58;103534.06;;;10.51;79.71
62725;BME280;49026;52.600;4.694;2023-02-11T13:29:32;103531.41;;;10.48;80.01
62725;BME280;49026;52.600;4.694;2023-02-11T13:32:11;103536.66;;;10.44;79.22
62725;BME280;49026;52.600;4.694;2023-02-11T13:37:17;103532.22;;;10.32;80.01
62725;BME280;49026;52.600;4.694;2023-02-11T13:39:56;103529.53;;;10.21;79.74
62725;BME280;49026;52.600;4.694;2023-02-11T13:42:28;103534.78;;;10.18;80.39
62725;BME280;49026;52.600;4.694;2023-02-11T13:44:55;103538.25;;;10.17;79.86
62725;BME280;49026;52.600;4.694;2023-02-11T13:47:31;103534.72;;;10.12;80.17
62725;BME280;49026;52.600;4.694;2023-02-11T13:49:59;103529.47;;;10.06;80.15
62725;BME280;49026;52.600;4.694;2023-02-11T13:52:31;103536.47;;;10.07;80.37
62725;BME280;49026;52.600;4.694;2023-02-11T13:55:05;103526.88;;;10.16;80.78
62725;BME280;49026;52.600;4.694;2023-02-11T13:57:33;103517.25;;;10.22;79.72
62725;BME280;49026;52.600;4.694;2023-02-11T14:14:30;103535.59;;;10.09;79.82
62725;BME280;49026;52.600;4.694;2023-02-11T14:19:31;103527.66;;;9.98;79.47
62725;BME280;49026;52.600;4.694;2023-02-11T14:27:06;103535.47;;;9.86;80.38
62725;BME280;49026;52.600;4.694;2023-02-11T14:40:24;103552.78;;;9.58;80.43
62725;BME280;49026;52.600;4.694;2023-02-11T14:42:52;103544.00;;;9.51;80.41
62725;BME280;49026;52.600;4.694;2023-02-11T14:45:22;103554.41;;;9.43;80.13
62725;BME280;49026;52.600;4.694;2023-02-11T14:48:11;103557.84;;;9.35;80.43
62725;BME280;49026;52.600;4.694;2023-02-11T14:50:47;103553.47;;;9.31;80.68
62725;BME280;49026;52.600;4.694;2023-02-11T14:53:17;103543.78;;;9.26;80.84
62725;BME280;49026;52.600;4.694;2023-02-11T14:55:49;103546.34;;;9.20;80.88
62725;BME280;49026;52.600;4.694;2023-02-11T15:06:02;103555.97;;;9.18;80.81
62725;BME280;49026;52.600;4.694;2023-02-11T15:08:33;103560.28;;;9.13;80.63
62725;BME280;49026;52.600;4.694;2023-02-11T15:11:01;103560.25;;;9.10;80.84
62725;BME280;49026;52.600;4.694;2023-02-11T15:13:30;103562.00;;;9.08;80.74
62725;BME280;49026;52.600;4.694;2023-02-11T15:16:02;103560.19;;;9.02;80.57
62725;BME280;49026;52.600;4.694;2023-02-11T15:18:33;103561.91;;;9.02;80.98
62725;BME280;49026;52.600;4.694;2023-02-11T15:20:59;103565.38;;;8.98;81.15
62725;BME280;49026;52.600;4.694;2023-02-11T15:23:28;103565.31;;;8.92;81.25
62725;BME280;49026;52.600;4.694;2023-02-11T15:25:54;103569.72;;;8.93;80.96